Time,TemperatureF,DewpointF,PressureIn,WindDirection,WindDirectionDegrees,WindSpeedMPH,WindSpeedGustMPH,Humidity,HourlyPrecipIn,Conditions,Clouds,dailyrainin,SolarRadiationWatts/m^2,SoftwareType,DateUTC
2013-05-09 00:02:00,55.0,54.0,29.97,SE,146,0.0,9.0,97,0.15,,,0.96,0,weatherlink.com 1.10,2013-05-09 04:02:00,
2013-05-09 00:17:00,54.7,54.0,29.96,SSW,200,4.0,7.0,98,0.07,,,0.00,0,weatherlink.com 1.10,2013-05-09 04:17:00,
2013-05-09 00:32:00,54.6,54.0,29.96,SSW,193,0.0,9.0,98,0.00,,,0.00,0,weatherlink.com 1.10,2013-05-09 04:32:00,
2013-05-09 00:47:00,54.5,54.0,29.95,South,182,0.0,7.0,97,0.00,,,0.00,0,weatherlink.com 1.10,2013-05-09 04:47:00,
2013-05-09 01:02:00,54.3,54.0,29.95,SSE,168,0.0,6.0,98,0.00,,,0.00,0,weatherlink.com 1.10,2013-05-09 05:02:00,
2013-05-09 01:17:00,54.1,54.0,29.95,South,171,0.0,4.0,98,0.00,,,0.00,0,weatherlink.com 1.10,2013-05-09 05:17:00,
2013-05-09 01:32:00,54.1,54.0,29.95,SE,142,4.0,7.0,98,0.00,,,0.00,0,weatherlink.com 1.10,2013-05-09 05:32:00,
2013-05-09 01:47:00,53.8,53.0,29.94,SSW,206,0.0,8.0,97,0.00,,,0.00,0,weatherlink.com 1.10,2013-05-09 05:47:00,
2013-05-09 02:02:00,53.3,53.0,29.94,South,171,3.0,5.0,98,0.00,,,0.00,0,weatherlink.com 1.10,2013-05-09 06:02:00,
2013-05-09 02:17:00,53.0,52.0,29.94,South,173,0.0,2.0,97,0.00,,,0.00,0,weatherlink.com 1.10,2013-05-09 06:17:00,
2013-05-09 02:32:00,52.9,52.0,29.93,South,173,2.0,3.0,98,0.00,,,0.00,0,weatherlink.com 1.10,2013-05-09 06:32:00,
2013-05-09 02:47:00,53.0,53.0,29.93,South,178,0.0,5.0,98,0.00,,,0.00,0,weatherlink.com 1.10,2013-05-09 06:47:00,
2013-05-09 03:02:00,52.6,52.0,29.93,South,178,0.0,2.0,97,0.00,,,0.00,0,weatherlink.com 1.10,2013-05-09 07:02:00,
2013-05-09 03:17:00,52.2,52.0,29.92,South,176,0.0,2.0,98,0.00,,,0.00,0,weatherlink.com 1.10,2013-05-09 07:17:00,
2013-05-09 03:32:00,52.1,51.0,29.92,South,174,0.0,1.0,97,0.00,,,0.00,0,weatherlink.com 1.10,2013-05-09 07:32:00,
2013-05-09 03:47:00,51.6,51.0,29.91,South,174,0.0,2.0,98,0.00,,,0.00,0,weatherlink.com 1.10,2013-05-09 07:47:00,
2013-05-09 04:02:00,51.1,51.0,29.91,South,174,0.0,1.0,98,0.00,,,0.00,0,weatherlink.com 1.10,2013-05-09 08:02:00,
2013-05-09 04:17:00,51.0,51.0,29.91,South,174,0.0,1.0,98,0.00,,,0.00,0,weatherlink.com 1.10,2013-05-09 08:17:00,
2013-05-09 04:32:00,51.0,51.0,29.91,South,174,0.0,0.0,98,0.00,,,0.00,0,weatherlink.com 1.10,2013-05-09 08:32:00,
2013-05-09 04:47:00,50.9,50.0,29.90,South,174,0.0,0.0,98,0.00,,,0.00,0,weatherlink.com 1.10,2013-05-09 08:47:00,
2013-05-09 05:02:00,50.6,50.0,29.91,South,174,0.0,1.0,97,0.00,,,0.00,0,weatherlink.com 1.10,2013-05-09 09:02:00,
2013-05-09 05:17:00,50.2,49.0,29.90,South,174,0.0,0.0,97,0.00,,,0.00,0,weatherlink.com 1.10,2013-05-09 09:17:00,
2013-05-09 05:32:00,49.7,49.0,29.91,South,174,0.0,2.0,97,0.00,,,0.00,0,weatherlink.com 1.10,2013-05-09 09:32:00,
2013-05-09 05:47:00,49.5,49.0,29.91,South,174,0.0,1.0,97,0.00,,,0.00,5,weatherlink.com 1.10,2013-05-09 09:47:00,
2013-05-09 06:02:00,49.6,49.0,29.90,South,174,0.0,1.0,97,0.00,,,0.00,23,weatherlink.com 1.10,2013-05-09 10:02:00,
2013-05-09 06:18:00,49.9,49.0,29.91,South,174,0.0,0.0,97,0.00,,,0.00,30,weatherlink.com 1.10,2013-05-09 10:18:00,
2013-05-09 06:32:00,50.3,50.0,29.91,South,174,0.0,0.0,97,0.00,,,0.00,16,weatherlink.com 1.10,2013-05-09 10:32:00,
2013-05-09 06:48:00,50.4,50.0,29.91,South,175,0.0,4.0,97,0.00,,,0.00,35,weatherlink.com 1.10,2013-05-09 10:48:00,
2013-05-09 07:03:00,50.8,50.0,29.91,South,175,0.0,0.0,97,0.00,,,0.00,125,weatherlink.com 1.10,2013-05-09 11:03:00,
2013-05-09 07:18:00,51.9,51.0,29.91,South,175,0.0,2.0,97,0.00,,,0.00,197,weatherlink.com 1.10,2013-05-09 11:18:00,
2013-05-09 07:33:00,52.2,51.0,29.91,SSE,165,4.0,7.0,96,0.00,,,0.00,213,weatherlink.com 1.10,2013-05-09 11:33:00,
2013-05-09 07:48:00,52.2,51.0,29.91,SSE,147,0.0,5.0,95,0.00,,,0.00,188,weatherlink.com 1.10,2013-05-09 11:48:00,
2013-05-09 08:03:00,53.2,52.0,29.92,SSE,163,3.0,4.0,95,0.00,,,0.00,174,weatherlink.com 1.10,2013-05-09 12:03:00,
2013-05-09 08:18:00,53.1,51.0,29.92,SSE,155,1.0,4.0,93,0.00,,,0.00,188,weatherlink.com 1.10,2013-05-09 12:18:00,
2013-05-09 08:33:00,53.2,51.0,29.92,SE,138,0.0,7.0,91,0.00,,,0.00,179,weatherlink.com 1.10,2013-05-09 12:33:00,
2013-05-09 08:49:00,54.5,52.0,29.91,SSE,159,1.0,5.0,91,0.00,,,0.00,329,weatherlink.com 1.10,2013-05-09 12:49:00,
2013-05-09 09:04:00,54.1,51.0,29.91,South,189,5.0,8.0,88,0.00,,,0.00,257,weatherlink.com 1.10,2013-05-09 13:04:00,
2013-05-09 09:19:00,55.0,52.0,29.91,South,169,0.0,5.0,89,0.00,,,0.00,399,weatherlink.com 1.10,2013-05-09 13:19:00,
2013-05-09 09:34:00,55.7,52.0,29.91,South,182,0.0,7.0,86,0.00,,,0.00,338,weatherlink.com 1.10,2013-05-09 13:34:00,
2013-05-09 09:49:00,55.9,52.0,29.90,SSE,163,0.0,7.0,85,0.00,,,0.00,450,weatherlink.com 1.10,2013-05-09 13:49:00,
2013-05-09 10:04:00,56.1,52.0,29.90,SE,143,1.0,9.0,85,0.00,,,0.00,202,weatherlink.com 1.10,2013-05-09 14:04:00,
2013-05-09 10:19:00,56.8,53.0,29.90,SE,141,4.0,8.0,87,0.00,,,0.00,410,weatherlink.com 1.10,2013-05-09 14:19:00,
2013-05-09 10:35:00,56.3,52.0,29.90,SE,146,3.0,8.0,84,0.00,,,0.00,144,weatherlink.com 1.10,2013-05-09 14:35:00,
2013-05-09 10:51:00,56.1,52.0,29.90,South,180,2.0,9.0,86,0.00,,,0.00,262,weatherlink.com 1.10,2013-05-09 14:51:00,
2013-05-09 11:05:00,56.1,52.0,29.90,South,188,2.0,8.0,85,0.00,,,0.00,102,weatherlink.com 1.10,2013-05-09 15:05:00,
2013-05-09 11:21:00,55.9,52.0,29.90,SSE,148,2.0,8.0,86,0.00,,,0.00,118,weatherlink.com 1.10,2013-05-09 15:21:00,
2013-05-09 11:35:00,55.3,52.0,29.90,SSE,157,2.0,8.0,87,0.00,,,0.00,118,weatherlink.com 1.10,2013-05-09 15:35:00,
2013-05-09 11:51:00,54.9,52.0,29.89,SSE,148,4.0,7.0,91,0.00,,,0.00,292,weatherlink.com 1.10,2013-05-09 15:51:00,
2013-05-09 12:06:00,54.8,53.0,29.89,SSW,192,5.0,8.0,94,0.00,,,0.00,248,weatherlink.com 1.10,2013-05-09 16:06:00,
2013-05-09 12:21:00,55.4,54.0,29.89,South,175,7.0,7.0,94,0.00,,,0.00,262,weatherlink.com 1.10,2013-05-09 16:21:00,
2013-05-09 12:36:00,55.9,54.0,29.89,SSE,147,2.0,7.0,92,0.00,,,0.00,183,weatherlink.com 1.10,2013-05-09 16:36:00,
2013-05-09 12:51:00,55.1,53.0,29.89,SE,135,2.0,10.0,92,0.00,,,0.00,104,weatherlink.com 1.10,2013-05-09 16:51:00,
2013-05-09 13:06:00,55.1,53.0,29.89,SE,146,0.0,9.0,93,0.00,,,0.00,146,weatherlink.com 1.10,2013-05-09 17:06:00,
2013-05-09 13:21:00,55.4,53.0,29.88,SSE,148,2.0,6.0,92,0.00,,,0.00,211,weatherlink.com 1.10,2013-05-09 17:21:00,
2013-05-09 13:36:00,56.2,54.0,29.88,South,173,5.0,6.0,91,0.00,,,0.00,599,weatherlink.com 1.10,2013-05-09 17:36:00,
2013-05-09 13:52:00,57.2,52.0,29.87,South,183,0.0,13.0,84,0.00,,,0.00,448,weatherlink.com 1.10,2013-05-09 17:52:00,
2013-05-09 14:07:00,58.6,55.0,29.86,SE,144,1.0,13.0,86,0.00,,,0.00,439,weatherlink.com 1.10,2013-05-09 18:07:00,
2013-05-09 14:22:00,59.0,53.0,29.86,SE,140,9.0,13.0,79,0.00,,,0.00,1253,weatherlink.com 1.10,2013-05-09 18:22:00,
2013-05-09 14:37:00,59.0,52.0,29.85,SSE,147,6.0,10.0,77,0.00,,,0.00,1099,weatherlink.com 1.10,2013-05-09 18:37:00,
2013-05-09 14:52:00,60.4,52.0,29.84,South,176,0.0,9.0,73,0.00,,,0.00,946,weatherlink.com 1.10,2013-05-09 18:52:00,
2013-05-09 15:07:00,61.7,52.0,29.84,SE,137,5.0,8.0,70,0.00,,,0.00,592,weatherlink.com 1.10,2013-05-09 19:07:00,
2013-05-09 15:22:00,60.3,52.0,29.84,SE,146,7.0,12.0,73,0.00,,,0.00,265,weatherlink.com 1.10,2013-05-09 19:22:00,
2013-05-09 15:38:00,60.7,50.0,29.83,South,171,0.0,8.0,67,0.00,,,0.00,332,weatherlink.com 1.10,2013-05-09 19:38:00,
2013-05-09 15:53:00,61.8,51.0,29.83,SE,128,1.0,10.0,68,0.00,,,0.00,202,weatherlink.com 1.10,2013-05-09 19:53:00,
2013-05-09 16:08:00,61.5,52.0,29.82,SE,126,0.0,11.0,70,0.00,,,0.00,269,weatherlink.com 1.10,2013-05-09 20:08:00,
2013-05-09 16:23:00,60.9,51.0,29.82,SSE,152,1.0,10.0,70,0.00,,,0.00,232,weatherlink.com 1.10,2013-05-09 20:23:00,
2013-05-09 16:38:00,61.2,52.0,29.82,SSW,195,7.0,10.0,72,0.00,,,0.00,334,weatherlink.com 1.10,2013-05-09 20:38:00,
2013-05-09 16:53:00,60.7,53.0,29.82,SSE,160,4.0,7.0,75,0.00,,,0.00,575,weatherlink.com 1.10,2013-05-09 20:53:00,
2013-05-09 17:09:00,61.2,52.0,29.82,South,169,0.0,11.0,71,0.00,,,0.00,250,weatherlink.com 1.10,2013-05-09 21:09:00,
2013-05-09 17:24:00,60.8,52.0,29.82,SE,139,5.0,7.0,74,0.00,,,0.00,195,weatherlink.com 1.10,2013-05-09 21:24:00,
2013-05-09 17:39:00,60.0,52.0,29.82,South,189,7.0,10.0,75,0.00,,,0.00,172,weatherlink.com 1.10,2013-05-09 21:39:00,
2013-05-09 17:54:00,59.0,52.0,29.82,SE,143,2.0,11.0,78,0.00,,,0.00,137,weatherlink.com 1.10,2013-05-09 21:54:00,
2013-05-09 18:09:00,58.3,52.0,29.82,ESE,122,4.0,9.0,80,0.00,,,0.00,107,weatherlink.com 1.10,2013-05-09 22:09:00,
2013-05-09 18:24:00,58.4,51.0,29.83,ESE,103,5.0,6.0,77,0.00,,,0.00,56,weatherlink.com 1.10,2013-05-09 22:24:00,
2013-05-09 18:39:00,56.3,51.0,29.84,NNE,12,0.0,10.0,83,0.00,,,0.00,12,weatherlink.com 1.10,2013-05-09 22:39:00,
2013-05-09 18:55:00,55.4,52.0,29.84,North,5,0.0,4.0,87,0.07,,,0.07,14,weatherlink.com 1.10,2013-05-09 22:55:00,
2013-05-09 19:11:00,53.8,51.0,29.85,North,5,0.0,2.0,90,0.17,,,0.17,19,weatherlink.com 1.10,2013-05-09 23:11:00,
2013-05-09 19:25:00,53.3,51.0,29.85,North,5,0.0,2.0,92,0.20,,,0.20,21,weatherlink.com 1.10,2013-05-09 23:25:00,
2013-05-09 19:41:00,53.0,51.0,29.86,North,5,0.0,1.0,93,0.24,,,0.24,25,weatherlink.com 1.10,2013-05-09 23:41:00,
2013-05-09 19:55:00,53.0,51.0,29.85,North,5,0.0,0.0,94,0.18,,,0.26,11,weatherlink.com 1.10,2013-05-09 23:55:00,
2013-05-09 20:10:00,53.0,51.0,29.85,North,5,0.0,0.0,94,0.10,,,0.27,0,weatherlink.com 1.10,2013-05-10 00:10:00,
2013-05-09 20:25:00,53.0,51.0,29.85,North,5,0.0,0.0,94,0.06,,,0.27,0,weatherlink.com 1.10,2013-05-10 00:25:00,
2013-05-09 20:40:00,52.8,51.0,29.86,North,5,0.0,0.0,94,0.03,,,0.27,0,weatherlink.com 1.10,2013-05-10 00:40:00,
2013-05-09 20:55:00,52.6,51.0,29.86,North,5,0.0,0.0,95,0.01,,,0.27,0,weatherlink.com 1.10,2013-05-10 00:55:00,
2013-05-09 21:10:00,52.2,51.0,29.86,North,5,0.0,0.0,95,0.00,,,0.27,0,weatherlink.com 1.10,2013-05-10 01:10:00,
2013-05-09 21:25:00,52.2,51.0,29.86,North,5,0.0,0.0,95,0.01,,,0.28,0,weatherlink.com 1.10,2013-05-10 01:25:00,
2013-05-09 21:40:00,52.1,51.0,29.86,North,5,0.0,0.0,95,0.01,,,0.28,0,weatherlink.com 1.10,2013-05-10 01:40:00,
2013-05-09 21:55:00,51.9,51.0,29.87,North,5,0.0,0.0,95,0.01,,,0.28,0,weatherlink.com 1.10,2013-05-10 01:55:00,
2013-05-09 22:10:00,51.8,51.0,29.87,North,5,0.0,0.0,95,0.01,,,0.28,0,weatherlink.com 1.10,2013-05-10 02:10:00,
2013-05-09 22:25:00,51.6,50.0,29.86,North,5,0.0,0.0,95,0.00,,,0.28,0,weatherlink.com 1.10,2013-05-10 02:25:00,
2013-05-09 22:40:00,51.2,50.0,29.86,North,5,0.0,0.0,95,0.00,,,0.28,0,weatherlink.com 1.10,2013-05-10 02:40:00,
2013-05-09 22:55:00,50.7,49.0,29.85,North,5,0.0,1.0,95,0.00,,,0.28,0,weatherlink.com 1.10,2013-05-10 02:55:00,
2013-05-09 23:11:00,50.3,49.0,29.85,North,5,0.0,1.0,95,0.00,,,0.28,0,weatherlink.com 1.10,2013-05-10 03:11:00,
2013-05-09 23:26:00,50.5,49.0,29.85,North,5,0.0,1.0,96,0.00,,,0.28,0,weatherlink.com 1.10,2013-05-10 03:26:00,
2013-05-09 23:41:00,50.4,49.0,29.85,North,5,0.0,2.0,96,0.00,,,0.28,0,weatherlink.com 1.10,2013-05-10 03:41:00,
2013-05-09 23:56:00,50.7,49.0,29.85,North,355,0.0,4.0,95,0.00,,,0.28,0,weatherlink.com 1.10,2013-05-10 03:56:00,